Time;durP1;ratioP1;P1;durP2;ratioP2;P2;SDS_P1;SDS_P2;PMS_P1;PMS_P2;Temp;Humidity;BMP_temperature;BMP_pressure;BME280_temperature;BME280_humidity;BME280_pressure;Samples;Min_cycle;Max_cycle;Signal;HPM_P1;HPM_P2
2023/04/18 00:06:09;;;;;;;;;;;;;;;;;;;;;
2023/04/18 00:12:57;;;;;;;24.80;16.80;;;;;;;8.88;100.00;99262.39;270406;1283;23086;-88
2023/04/18 00:20:01;;;;;;;21.10;14.50;;;;;;;8.88;100.00;99258.23;270815;1283;22222;-89
2023/04/18 00:26:49;;;;;;;;;;;;;;;;;;;;;
2023/04/18 00:34:02;;;;;;;27.20;16.40;;;;;;;8.85;100.00;99261.83;272524;1272;22425;-88
2023/04/18 00:41:05;;;;;;;21.10;14.70;;;;;;;8.84;100.00;99266.73;272577;1261;22402;-89
2023/04/18 00:47:09;;;;;;;24.60;15.30;;;;;;;8.83;100.00;99265.06;272599;1272;22382;-87
2023/04/18 00:53:32;;;;;;;28.90;16.70;;;;;;;8.81;100.00;99263.23;272528;1272;22275;-88
2023/04/18 00:59:56;;;;;;;22.80;16.10;;;;;;;8.80;100.00;99262.89;272551;1264;22146;-88
2023/04/18 01:06:02;;;;;;;20.80;14.70;;;;;;;8.80;100.00;99262.44;272536;1272;22332;-88
2023/04/18 01:12:16;;;;;;;24.00;16.10;;;;;;;8.79;100.00;99260.86;272432;1272;23468;-89
2023/04/18 01:18:23;;;;;;;26.00;16.40;;;;;;;8.78;100.00;99266.19;272357;1272;22341;-89
2023/04/18 01:24:42;;;;;;;25.60;16.40;;;;;;;8.77;100.00;99268.91;272509;1272;22206;-90
2023/04/18 01:30:53;;;;;;;26.20;15.60;;;;;;;8.77;100.00;99272.64;272521;1263;23149;-89
2023/04/18 01:37:21;;;;;;;19.90;11.70;;;;;;;8.72;100.00;99275.57;272513;1271;22430;-90
2023/04/18 01:43:42;;;;;;;16.60;11.50;;;;;;;8.68;100.00;99278.38;272497;1271;23065;-90
2023/04/18 01:49:59;;;;;;;18.20;11.70;;;;;;;8.65;100.00;99281.28;272503;1272;22563;-92
2023/04/18 01:56:42;;;;;;;18.50;12.00;;;;;;;8.64;100.00;99275.55;273067;1271;22213;-90
2023/04/18 02:10:31;;;;;;;22.00;14.80;;;;;;;8.63;100.00;99284.64;272620;1272;22526;-92
2023/04/18 02:17:08;;;;;;;23.30;14.60;;;;;;;8.65;100.00;99284.38;272130;1271;22559;-89
2023/04/18 02:23:55;;;;;;;17.40;12.80;;;;;;;8.66;100.00;99286.66;271391;1272;23378;-90
2023/04/18 02:29:58;;;;;;;18.10;12.10;;;;;;;8.67;100.00;99288.64;270511;1267;22555;-89
2023/04/18 02:36:27;;;;;;;18.70;12.80;;;;;;;8.67;100.00;99288.65;273237;1272;23220;-92
2023/04/18 02:49:27;;;;;;;18.80;13.00;;;;;;;8.66;100.00;99283.95;270765;1260;22701;-89
2023/04/18 03:11:39;;;;;;;25.50;17.30;;;;;;;8.67;100.00;99286.69;268475;1267;22561;-88
2023/04/18 03:18:23;;;;;;;;;;;;;;;8.69;100.00;99293.13;269515;1273;22549;-88
2023/04/18 03:25:34;;;;;;;33.20;20.30;;;;;;;8.69;100.00;99292.89;269774;1274;22578;-88
2023/04/18 03:32:21;;;;;;;32.30;20.70;;;;;;;8.68;100.00;99302.47;270654;1273;22397;-92
2023/04/18 03:38:44;;;;;;;30.40;20.90;;;;;;;8.66;100.00;99311.40;271746;1272;22566;-90
2023/04/18 03:45:00;;;;;;;;;;;;;;;8.67;100.00;99316.63;273321;1266;22435;-89
2023/04/18 03:52:11;;;;;;;31.80;20.30;;;;;;;8.66;100.00;99321.13;272378;1272;22962;-88
2023/04/18 03:58:35;;;;;;;32.50;20.50;;;;;;;8.67;100.00;99328.72;272838;1270;22748;-93
2023/04/18 04:05:55;;;;;;;35.30;22.20;;;;;;;8.67;100.00;99333.88;273283;1270;22561;-92
2023/04/18 04:12:38;;;;;;;36.40;22.90;;;;;;;8.67;100.00;99346.96;271023;1270;22210;-91
2023/04/18 04:19:26;;;;;;;35.20;22.40;;;;;;;8.66;100.00;99356.14;270040;1272;22528;-91
2023/04/18 04:26:51;;;;;;;34.60;23.10;;;;;;;8.64;100.00;99358.20;270690;1270;22550;-89
2023/04/18 04:40:46;;;;;;;32.30;20.40;;;;;;;8.61;100.00;99382.45;271133;1269;25537;-90
2023/04/18 04:47:29;;;;;;;31.50;20.30;;;;;;;8.59;100.00;99393.71;273059;1271;22177;-90
2023/04/18 04:53:40;;;;;;;29.00;20.80;;;;;;;8.58;100.00;99395.16;273339;1270;22262;-89
2023/04/18 04:59:44;;;;;;;30.70;19.00;;;;;;;8.57;100.00;99399.12;273347;1272;23896;-90
2023/04/18 05:15:12;;;;;;;32.70;21.10;;;;;;;8.55;100.00;99414.95;272739;1270;22590;-90
2023/04/18 05:22:34;;;;;;;30.60;21.20;;;;;;;8.56;100.00;99418.27;270733;1270;22748;-91
2023/04/18 05:29:29;;;;;;;33.50;20.00;;;;;;;8.56;100.00;99419.74;271278;1269;22557;-89
2023/04/18 05:36:18;;;;;;;29.50;20.30;;;;;;;8.58;100.00;99426.65;272483;1270;22937;-90
2023/04/18 05:43:32;;;;;;;31.70;20.60;;;;;;;8.61;100.00;99434.61;272114;1274;22547;-90
2023/04/18 05:49:59;;;;;;;34.50;22.60;;;;;;;8.65;100.00;99438.86;269129;1277;23727;-88
2023/04/18 05:57:21;;;;;;;36.10;22.50;;;;;;;8.70;100.00;99443.80;268829;1276;22564;-92
2023/04/18 06:04:08;;;;;;;35.60;22.40;;;;;;;8.77;100.00;99446.11;268836;1276;23062;-91
2023/04/18 06:11:24;;;;;;;29.30;20.60;;;;;;;8.82;100.00;99448.51;270425;1275;23717;-91
2023/04/18 06:18:06;;;;;;;28.60;20.70;;;;;;;8.90;100.00;99447.29;269273;1275;22546;-92
2023/04/18 06:25:12;;;;;;;30.00;21.20;;;;;;;9.04;100.00;99449.20;268997;1275;24233;-90
2023/04/18 06:32:30;;;;;;;30.40;20.80;;;;;;;9.22;100.00;99455.48;269885;1270;22560;-88
2023/04/18 06:38:57;;;;;;;31.00;19.80;;;;;;;9.29;100.00;99469.06;273379;1272;22631;-87
2023/04/18 06:45:42;;;;;;;29.50;19.90;;;;;;;9.36;100.00;99472.90;272348;1270;22542;-89
2023/04/18 06:52:55;;;;;;;25.40;18.00;;;;;;;9.45;100.00;99480.61;271360;1270;22547;-90
2023/04/18 06:58:58;;;;;;;30.30;17.30;;;;;;;9.48;100.00;99483.36;270264;1269;22588;-88
2023/04/18 07:05:38;;;;;;;23.40;16.80;;;;;;;9.59;100.00;99490.13;269983;1272;22524;-89
2023/04/18 07:12:47;;;;;;;23.00;17.30;;;;;;;9.87;100.00;99495.59;270168;1270;22208;-89
2023/04/18 07:19:11;;;;;;;28.20;16.30;;;;;;;10.21;100.00;99498.08;271183;1270;22591;-89
2023/04/18 07:25:48;;;;;;;23.60;16.80;;;;;;;10.40;100.00;99497.44;272122;1272;22315;-91
2023/04/18 07:32:39;;;;;;;24.40;16.30;;;;;;;10.36;100.00;99501.52;272499;1259;22182;-89
2023/04/18 07:39:06;;;;;;;21.50;15.70;;;;;;;10.42;100.00;99504.98;271279;1275;22377;-90
2023/04/18 07:53:23;;;;;;;25.10;15.80;;;;;;;10.78;100.00;99516.96;271875;1275;22577;-91
2023/04/18 08:00:22;;;;;;;20.10;13.70;;;;;;;10.86;100.00;99510.98;271234;1275;22757;-88
2023/04/18 08:07:00;;;;;;;14.10;11.20;;;;;;;11.45;100.00;99508.86;271867;1277;22380;-90
2023/04/18 08:13:44;;;;;;;15.80;11.10;;;;;;;11.92;100.00;99514.21;269990;1277;22227;-91
2023/04/18 08:21:03;;;;;;;13.90;10.10;;;;;;;11.90;100.00;99516.14;267883;1282;22564;-90
2023/04/18 08:28:05;;;;;;;16.90;9.80;;;;;;;12.26;100.00;99515.91;268440;1279;23468;-91
2023/04/18 08:35:15;;;;;;;11.80;9.00;;;;;;;12.31;100.00;99523.05;271153;1277;22223;-90
2023/04/18 08:49:38;;;;;;;12.10;7.60;;;;;;;13.19;100.00;99521.65;271578;1274;23237;-90
2023/04/18 09:12:04;;;;;;;14.80;7.90;;;;;;;13.85;94.74;99525.80;270931;1280;22368;-89
2023/04/18 09:18:23;;;;;;;10.60;6.80;;;;;;;14.00;94.28;99521.79;270511;1278;22415;-92
2023/04/18 09:26:08;;;;;;;9.90;5.80;;;;;;;14.62;93.40;99519.63;271157;1278;23030;-92
2023/04/18 09:33:41;;;;;;;;;;;;;;;;;;;;;
2023/04/18 09:40:38;;;;;;;7.00;5.70;;;;;;;15.05;85.44;99512.03;273026;1269;22323;-89
2023/04/18 09:47:38;;;;;;;;;;;;;;;;;;;;;
2023/04/18 10:03:16;;;;;;;8.70;5.70;;;;;;;16.19;82.72;99508.17;273502;1270;22491;-91
2023/04/18 10:09:43;;;;;;;9.30;4.90;;;;;;;16.56;80.74;99503.93;272926;1270;22317;-91
2023/04/18 10:16:13;;;;;;;7.60;4.20;;;;;;;16.89;79.57;99502.66;272579;1269;22599;-92
2023/04/18 10:22:33;;;;;;;7.70;4.20;;;;;;;17.17;77.83;99498.05;271083;1271;22224;-90
2023/04/18 10:29:13;;;;;;;6.70;4.40;;;;;;;17.03;76.20;99491.42;272926;1269;22539;-92
2023/04/18 10:36:11;;;;;;;8.50;4.30;;;;;;;17.43;72.21;99486.23;272182;1270;22343;-90
2023/04/18 10:43:08;;;;;;;7.50;4.10;;;;;;;17.72;70.71;99486.60;273555;1270;22340;-93
2023/04/18 10:49:59;;;;;;;6.50;3.90;;;;;;;17.82;67.94;99481.52;273233;1262;24319;-93
2023/04/18 10:56:31;;;;;;;6.50;3.70;;;;;;;17.92;67.98;99475.23;272751;1269;22622;-90
2023/04/18 11:03:13;;;;;;;7.60;3.80;;;;;;;17.71;66.64;99469.22;270027;1272;23772;-92
2023/04/18 11:09:41;;;;;;;6.00;4.20;;;;;;;17.36;66.32;99465.64;270939;1272;23796;-92
2023/04/18 11:16:03;;;;;;;6.80;3.40;;;;;;;17.20;63.99;99467.67;271450;1269;24392;-92
2023/04/18 11:22:07;;;;;;;7.90;3.60;;;;;;;17.56;65.13;99461.91;269266;1270;4207669;-90
2023/04/18 11:28:38;;;;;;;6.10;3.30;;;;;;;17.81;63.66;99462.78;272012;1269;22263;-91
2023/04/18 11:35:18;;;;;;;5.30;3.30;;;;;;;18.02;61.08;99459.30;273175;1270;23554;-91
2023/04/18 11:41:33;;;;;;;7.60;3.80;;;;;;;18.21;59.65;99457.33;271842;1271;22552;-91
2023/04/18 11:48:21;;;;;;;7.10;4.00;;;;;;;18.28;58.41;99456.70;271178;1269;22558;-91
2023/04/18 11:55:04;;;;;;;7.10;3.20;;;;;;;18.04;57.68;99454.77;271856;1270;22413;-89
2023/04/18 12:01:38;;;;;;;6.10;3.20;;;;;;;17.61;56.90;99446.85;272421;1271;22578;-92
2023/04/18 12:08:21;;;;;;;5.90;3.80;;;;;;;17.34;56.49;99449.52;270880;1270;23450;-91
2023/04/18 12:14:40;;;;;;;6.30;3.00;;;;;;;17.21;56.35;99443.48;272430;1272;22319;-91
2023/04/18 12:21:04;;;;;;;5.00;3.10;;;;;;;17.05;55.72;99443.05;273616;1270;23716;-92
2023/04/18 12:27:11;;;;;;;7.10;3.20;;;;;;;16.75;54.51;99447.29;271444;1269;22198;-89
2023/04/18 12:33:58;;;;;;;5.90;2.70;;;;;;;16.67;55.01;99445.85;272959;1263;22512;-91
2023/04/18 12:48:13;;;;;;;5.40;2.50;;;;;;;16.72;53.26;99438.56;271327;1270;22531;-93
2023/04/18 12:55:35;;;;;;;4.90;2.90;;;;;;;16.57;52.58;99434.14;271688;1270;22351;-91
2023/04/18 13:01:53;;;;;;;5.00;2.70;;;;;;;16.55;52.20;99432.90;272494;1272;22333;-91
2023/04/18 13:08:19;;;;;;;5.30;3.30;;;;;;;16.43;52.15;99426.08;271605;1272;22541;-92
2023/04/18 13:14:31;;;;;;;5.70;3.20;;;;;;;16.22;52.57;99428.07;271302;1269;22546;-89
2023/04/18 13:21:39;;;;;;;3.90;2.60;;;;;;;16.10;52.48;99429.15;270828;1271;22371;-92
2023/04/18 13:28:21;;;;;;;3.20;2.00;;;;;;;16.11;52.00;99438.21;271108;1270;23885;-93
2023/04/18 13:34:46;;;;;;;5.20;2.50;;;;;;;16.03;50.88;99436.83;270718;1270;22913;-91
2023/04/18 13:41:12;;;;;;;6.30;2.40;;;;;;;16.01;50.22;99433.27;270269;1270;22645;-91
2023/04/18 13:48:03;;;;;;;7.30;2.30;;;;;;;16.01;49.68;99427.98;270468;1272;23356;-92
2023/04/18 13:54:26;;;;;;;2.60;2.20;;;;;;;15.92;48.94;99425.58;270408;1264;22211;-92
2023/04/18 14:01:48;;;;;;;5.30;2.40;;;;;;;15.75;48.67;99423.66;271468;1272;22304;-90
2023/04/18 14:08:32;;;;;;;4.90;2.20;;;;;;;15.66;48.61;99423.05;271003;1270;24263;-92
2023/04/18 14:15:27;;;;;;;4.70;2.40;;;;;;;15.62;49.60;99419.91;270781;1272;22582;-92
2023/04/18 14:21:38;;;;;;;4.80;2.80;;;;;;;15.64;49.46;99421.88;271794;1271;22235;-92
2023/04/18 14:28:17;;;;;;;3.90;2.40;;;;;;;15.70;49.71;99422.34;272013;1265;24214;-92
2023/04/18 14:35:39;;;;;;;5.50;2.80;;;;;;;15.61;49.71;99416.13;272124;1272;22484;-90
2023/04/18 14:41:44;;;;;;;6.90;2.70;;;;;;;15.44;49.77;99417.52;272203;1272;23069;-89
2023/04/18 14:48:39;;;;;;;4.90;3.10;;;;;;;15.38;50.00;99412.54;272327;1272;22411;-89
2023/04/18 14:54:44;;;;;;;4.50;2.70;;;;;;;15.38;50.41;99408.44;271770;1271;22286;-91
2023/04/18 15:01:10;;;;;;;4.40;2.90;;;;;;;15.38;50.30;99406.86;272040;1272;22413;-92
2023/04/18 15:07:52;;;;;;;7.20;2.90;;;;;;;15.26;50.49;99405.91;271724;1272;22356;-92
2023/04/18 15:13:58;;;;;;;3.70;2.50;;;;;;;15.18;50.77;99403.24;271164;1272;22291;-89
2023/04/18 15:20:01;;;;;;;5.40;2.40;;;;;;;15.21;50.86;99407.89;272731;1272;22953;-90
2023/04/18 15:27:21;;;;;;;4.40;2.20;;;;;;;15.21;50.81;99406.17;272326;1263;22434;-88
2023/04/18 15:34:02;;;;;;;5.30;3.00;;;;;;;15.21;51.29;99407.04;272981;1260;22413;-87
2023/04/18 15:40:21;;;;;;;7.60;3.30;;;;;;;15.15;51.33;99403.89;271856;1271;22302;-91
2023/04/18 15:46:47;;;;;;;;;;;;;;;15.06;51.30;99404.67;270603;1275;22556;-87
2023/04/18 16:00:31;;;;;;;12.00;6.50;;;;;;;14.85;51.81;99410.11;270601;1271;22363;-89
2023/04/18 16:07:30;;;;;;;7.60;4.40;;;;;;;14.68;51.98;99417.09;271106;1277;22376;-87
2023/04/18 16:14:03;;;;;;;8.50;4.90;;;;;;;14.44;52.17;99420.98;270234;1270;22289;-91
2023/04/18 16:20:39;;;;;;;7.60;4.80;;;;;;;14.19;52.56;99418.62;270129;1269;22944;-88
2023/04/18 16:27:36;;;;;;;11.90;5.80;;;;;;;14.01;53.25;99417.76;269588;1270;22567;-91
2023/04/18 16:34:02;;;;;;;8.60;5.70;;;;;;;13.87;53.84;99422.72;269827;1270;25291;-88
2023/04/18 16:40:29;;;;;;;14.20;7.40;;;;;;;13.76;54.50;99428.48;269754;1266;22477;-87
2023/04/18 16:47:06;;;;;;;11.30;5.20;;;;;;;13.65;55.17;99427.40;270710;1270;22597;-90
2023/04/18 16:53:59;;;;;;;12.00;6.40;;;;;;;13.55;55.42;99427.03;269328;1270;24220;-89
2023/04/18 17:00:30;;;;;;;7.60;4.90;;;;;;;13.47;55.65;99426.34;269919;1270;22662;-89
2023/04/18 17:07:50;;;;;;;5.80;4.80;;;;;;;13.36;55.96;99422.75;271307;1270;23328;-90
2023/04/18 17:15:08;;;;;;;9.10;5.70;;;;;;;13.29;56.19;99421.61;271271;1270;22545;-88
2023/04/18 17:21:11;;;;;;;8.20;5.10;;;;;;;13.25;56.58;99421.19;271947;1270;22615;-89
2023/04/18 17:27:17;;;;;;;6.80;4.70;;;;;;;13.17;56.97;99423.01;272556;1271;23158;-89
2023/04/18 17:33:19;;;;;;;9.80;4.90;;;;;;;13.06;57.38;99426.85;270962;1271;23917;-88
2023/04/18 17:39:43;;;;;;;9.60;4.70;;;;;;;12.96;57.89;99429.48;270798;1271;22335;-89
2023/04/18 17:45:48;;;;;;;8.80;5.50;;;;;;;12.89;58.46;99429.11;269297;1271;22674;-88
2023/04/18 17:52:09;;;;;;;6.90;4.80;;;;;;;12.82;58.65;99426.46;270837;1270;22336;-89
2023/04/18 17:58:31;;;;;;;8.40;5.10;;;;;;;12.71;59.47;99430.52;271602;1273;23011;-90
2023/04/18 18:05:00;;;;;;;9.20;4.70;;;;;;;12.62;60.41;99432.16;270137;1271;23308;-89
2023/04/18 18:11:05;;;;;;;11.10;5.60;;;;;;;12.56;61.01;99430.52;269888;1271;22889;-89
2023/04/18 18:17:15;;;;;;;12.40;8.60;;;;;;;12.44;61.67;99435.34;270718;1270;24333;-90
2023/04/18 18:23:17;;;;;;;16.30;9.10;;;;;;;12.28;61.77;99437.52;269233;1264;23118;-89
2023/04/18 18:29:21;;;;;;;49.50;20.50;;;;;;;12.19;62.56;99437.19;272264;1270;22336;-91
2023/04/18 18:35:23;;;;;;;21.50;10.00;;;;;;;12.15;62.28;99439.01;271628;1270;22600;-90
2023/04/18 18:41:47;;;;;;;14.00;7.30;;;;;;;12.19;62.47;99442.83;273144;1270;22234;-90
2023/04/18 18:48:31;;;;;;;14.10;8.10;;;;;;;12.23;63.08;99440.13;272010;1270;22326;-92
2023/04/18 18:54:37;;;;;;;13.60;8.50;;;;;;;12.25;63.92;99440.15;272236;1270;22345;-88
2023/04/18 19:00:40;;;;;;;15.60;9.10;;;;;;;12.22;64.75;99441.14;270864;1269;23874;-88
2023/04/18 19:06:43;;;;;;;17.10;10.00;;;;;;;12.14;65.66;99433.60;270111;1262;22335;-86
2023/04/18 19:13:22;;;;;;;18.40;11.30;;;;;;;12.07;66.62;99433.20;270324;1270;22526;-88
2023/04/18 19:19:24;;;;;;;18.60;11.40;;;;;;;12.00;67.55;99429.82;270467;1270;22583;-89
2023/04/18 19:25:32;;;;;;;19.60;11.70;;;;;;;11.97;67.92;99429.79;270698;1271;22510;-89
2023/04/18 19:31:38;;;;;;;19.50;11.80;;;;;;;11.95;68.90;99426.39;270481;1270;22689;-90
2023/04/18 19:37:43;;;;;;;19.50;12.60;;;;;;;11.91;69.70;99423.74;270432;1272;22582;-89
2023/04/18 19:44:34;;;;;;;19.40;12.60;;;;;;;11.88;69.95;99420.66;271212;1270;25408;-89
2023/04/18 19:50:41;;;;;;;17.80;12.10;;;;;;;11.84;70.62;99418.95;271168;1270;23700;-90
2023/04/18 19:58:16;;;;;;;18.80;11.70;;;;;;;11.80;71.51;99419.68;270843;1271;22399;-92
2023/04/18 20:04:30;;;;;;;19.00;12.80;;;;;;;11.75;71.70;99413.34;271289;1267;22560;-89
2023/04/18 20:11:10;;;;;;;21.50;12.40;;;;;;;11.70;72.24;99407.02;269987;1271;25588;-88
2023/04/18 20:17:52;;;;;;;17.10;11.60;;;;;;;11.64;72.12;99398.86;270526;1271;22560;-88
2023/04/18 20:24:02;;;;;;;15.70;10.40;;;;;;;11.59;72.41;99399.73;270630;1270;22469;-89
2023/04/18 20:30:44;;;;;;;14.00;9.60;;;;;;;11.54;72.42;99396.05;271528;1266;22551;-89
2023/04/18 20:36:46;;;;;;;14.60;9.20;;;;;;;11.50;72.17;99396.77;272099;1270;22298;-88
2023/04/18 20:43:11;;;;;;;14.20;8.40;;;;;;;11.43;71.99;99394.73;272001;1270;22140;-87
2023/04/18 20:49:49;;;;;;;10.80;6.90;;;;;;;11.31;72.05;99392.98;273316;1260;22275;-88
2023/04/18 20:55:53;;;;;;;13.80;8.10;;;;;;;11.15;73.29;99387.89;272403;1261;22510;-92
2023/04/18 21:01:57;;;;;;;14.50;7.80;;;;;;;10.91;74.77;99377.51;272693;1270;22204;-90
2023/04/18 21:08:50;;;;;;;14.20;8.70;;;;;;;10.74;76.81;99372.84;272464;1270;23125;-90
2023/04/18 21:15:05;;;;;;;14.30;8.60;;;;;;;10.59;78.11;99372.83;270100;1270;25085;-90
2023/04/18 21:21:28;;;;;;;16.10;9.40;;;;;;;10.43;79.33;99363.39;270816;1270;22581;-90
2023/04/18 21:36:19;;;;;;;19.10;13.60;;;;;;;10.23;80.28;99358.03;271272;1269;24226;-91
2023/04/18 21:42:44;;;;;;;19.30;13.40;;;;;;;10.09;81.21;99360.95;270281;1269;22558;-92
2023/04/18 21:50:41;;;;;;;18.90;12.00;;;;;;;9.95;81.63;99355.52;270079;1270;25304;-93
2023/04/18 22:04:53;;;;;;;22.00;14.50;;;;;;;9.79;85.08;99341.48;271786;1270;22588;-94
2023/04/18 22:12:38;;;;;;;28.20;17.60;;;;;;;9.88;86.30;99338.75;272603;1254;22527;-93
2023/04/18 22:19:49;;;;;;;21.00;14.60;;;;;;;9.93;87.01;99331.74;269950;1274;22600;-93
2023/04/18 22:26:47;;;;;;;24.20;16.30;;;;;;;9.90;87.12;99327.39;270374;1275;26539;-94
2023/04/18 22:33:27;;;;;;;27.50;15.80;;;;;;;9.89;88.00;99322.52;270327;1265;22555;-93
2023/04/18 22:48:46;;;;;;;22.90;16.00;;;;;;;9.88;89.58;99309.52;271013;1270;23659;-92
2023/04/18 22:55:18;;;;;;;29.80;18.80;;;;;;;9.83;89.18;99303.96;271377;1272;23066;-92
2023/04/18 23:02:07;;;;;;;28.80;17.80;;;;;;;9.73;89.67;99301.04;271235;1272;22511;-91
2023/04/18 23:09:11;;;;;;;;;;;;;;;;;;;;;
2023/04/18 23:15:57;;;;;;;26.90;16.60;;;;;;;9.77;91.47;99281.60;270672;1272;22519;-93
2023/04/18 23:22:54;;;;;;;31.40;18.00;;;;;;;9.80;92.55;99272.58;269230;1275;263022;-91
2023/04/18 23:30:16;;;;;;;37.60;24.60;;;;;;;9.81;93.03;99258.78;271141;1273;23198;-92
2023/04/18 23:36:58;;;;;;;;;;;;;;;;;;;;;
2023/04/18 23:44:18;;;;;;;27.20;19.20;;;;;;;9.80;94.12;99242.58;269197;1274;22563;-93
2023/04/18 23:51:48;;;;;;;27.70;19.00;;;;;;;9.81;94.26;99234.33;269722;1271;23428;-93
2023/04/18 23:58:30;;;;;;;;;;;;;;;9.76;94.61;99221.66;270100;1272;22499;-94
